createdAt,value
2023-07-23T00:01:42.421Z,11.49
2023-07-23T00:04:09.222Z,11.50
2023-07-23T00:06:36.106Z,11.50
2023-07-23T00:09:04.446Z,11.54
2023-07-23T00:11:31.247Z,11.50
2023-07-23T00:13:57.976Z,11.50
2023-07-23T00:16:24.982Z,11.50
2023-07-23T00:18:51.771Z,11.50
2023-07-23T00:21:18.528Z,11.50
2023-07-23T00:23:45.215Z,11.47
2023-07-23T00:26:11.923Z,11.47
2023-07-23T00:28:38.664Z,11.50
2023-07-23T00:31:05.512Z,11.53
2023-07-23T00:33:32.273Z,11.53
2023-07-23T00:35:58.957Z,11.53
2023-07-23T00:38:25.797Z,11.54
2023-07-23T00:40:53.771Z,11.52
2023-07-23T00:43:20.515Z,11.52
2023-07-23T00:45:47.346Z,11.47
2023-07-23T00:48:14.251Z,11.49
2023-07-23T00:50:41.065Z,11.47
2023-07-23T00:53:07.897Z,11.46
2023-07-23T00:55:34.736Z,11.50
2023-07-23T00:58:01.528Z,11.45
2023-07-23T01:00:28.273Z,11.45
2023-07-23T01:02:55.093Z,11.52
2023-07-23T01:05:21.842Z,11.49
2023-07-23T01:07:48.613Z,11.53
2023-07-23T01:10:15.309Z,11.54
2023-07-23T01:12:42.102Z,11.53
2023-07-23T01:15:09.450Z,11.56
2023-07-23T01:17:37.225Z,11.57
2023-07-23T01:20:06.498Z,11.57
2023-07-23T01:22:34.490Z,11.56
2023-07-23T01:25:01.331Z,11.61
2023-07-23T01:27:28.089Z,11.58
2023-07-23T01:29:54.858Z,11.59
2023-07-23T01:32:21.683Z,11.61
2023-07-23T01:34:48.611Z,11.62
2023-07-23T01:37:15.793Z,11.58
2023-07-23T01:39:43.610Z,11.62
2023-07-23T01:42:13.415Z,11.62
2023-07-23T01:44:40.198Z,11.66
2023-07-23T01:47:07.033Z,11.64
2023-07-23T01:49:33.831Z,11.65
2023-07-23T01:52:00.625Z,11.66
2023-07-23T01:54:27.402Z,11.69
2023-07-23T01:56:54.805Z,11.69
2023-07-23T01:59:21.531Z,11.69
2023-07-23T02:01:48.361Z,11.74
2023-07-23T02:04:15.210Z,11.76
2023-07-23T02:06:41.934Z,11.75
2023-07-23T02:09:08.672Z,11.77
2023-07-23T02:11:35.456Z,11.79
2023-07-23T02:14:02.251Z,11.83
2023-07-23T02:16:29.016Z,11.82
2023-07-23T02:18:56.919Z,11.87
2023-07-23T02:21:23.749Z,11.87
2023-07-23T02:23:50.514Z,11.87
2023-07-23T02:26:17.276Z,11.89
2023-07-23T02:28:45.144Z,11.90
2023-07-23T02:31:12.213Z,11.90
2023-07-23T02:33:39.102Z,11.93
2023-07-23T02:36:05.998Z,11.94
2023-07-23T02:38:32.824Z,11.97
2023-07-23T02:41:00.073Z,12.00
2023-07-23T02:43:26.847Z,12.04
2023-07-23T02:45:53.841Z,12.05
2023-07-23T02:48:20.637Z,12.07
2023-07-23T02:50:47.406Z,12.12
2023-07-23T02:53:14.442Z,12.15
2023-07-23T02:55:41.252Z,12.16
2023-07-23T02:58:08.004Z,12.27
2023-07-23T03:00:34.878Z,12.28
2023-07-23T03:03:01.869Z,12.33
2023-07-23T03:05:28.773Z,12.35
2023-07-23T03:07:55.654Z,12.40
2023-07-23T03:10:22.540Z,12.39
2023-07-23T03:12:49.350Z,12.46
2023-07-23T03:15:16.088Z,12.53
2023-07-23T03:17:42.842Z,12.53
2023-07-23T03:20:12.211Z,12.61
2023-07-23T03:22:41.930Z,12.61
2023-07-23T03:25:08.971Z,12.61
2023-07-23T03:27:35.762Z,12.62
2023-07-23T03:30:04.229Z,12.70
2023-07-23T03:32:31.092Z,12.70
2023-07-23T03:34:57.916Z,12.73
2023-07-23T03:37:24.672Z,12.81
2023-07-23T03:39:51.518Z,12.79
2023-07-23T03:42:18.412Z,12.82
2023-07-23T03:44:45.212Z,12.87
2023-07-23T03:47:19.790Z,12.88
2023-07-23T03:49:47.176Z,12.91
2023-07-23T03:52:13.994Z,12.97
2023-07-23T03:54:40.766Z,12.96
2023-07-23T03:57:07.727Z,13.04
2023-07-23T03:59:42.379Z,13.09
2023-07-23T04:02:09.454Z,13.12
2023-07-23T04:04:38.284Z,13.16
2023-07-23T04:07:05.526Z,13.18
2023-07-23T04:09:32.391Z,13.23
2023-07-23T04:11:59.299Z,13.31
2023-07-23T04:14:26.320Z,13.43
2023-07-23T04:16:53.937Z,13.48
2023-07-23T04:19:20.698Z,13.57
2023-07-23T04:21:47.450Z,13.64
2023-07-23T04:24:14.207Z,13.70
2023-07-23T04:26:41.007Z,13.76
2023-07-23T04:29:09.365Z,13.77
2023-07-23T04:31:36.453Z,13.81
2023-07-23T04:34:03.307Z,13.83
2023-07-23T04:36:30.178Z,13.89
2023-07-23T04:38:56.949Z,14.00
2023-07-23T04:41:23.759Z,14.08
2023-07-23T04:43:50.602Z,14.18
2023-07-23T04:46:17.478Z,14.34
2023-07-23T04:48:44.292Z,14.45
2023-07-23T04:51:11.104Z,14.48
2023-07-23T04:53:37.970Z,14.50
2023-07-23T04:56:05.607Z,14.52
2023-07-23T04:58:32.790Z,14.52
2023-07-23T05:01:00.903Z,14.45
2023-07-23T05:03:27.936Z,14.44
2023-07-23T05:05:56.075Z,14.47
2023-07-23T05:08:23.910Z,14.50
2023-07-23T05:10:50.862Z,14.51
2023-07-23T05:13:17.621Z,14.51
2023-07-23T05:15:44.491Z,14.55
2023-07-23T05:18:11.301Z,14.50
2023-07-23T05:20:38.138Z,14.47
2023-07-23T05:23:05.136Z,14.43
2023-07-23T05:25:31.878Z,14.37
2023-07-23T05:27:58.664Z,14.42
2023-07-23T05:30:25.381Z,14.44
2023-07-23T05:32:52.197Z,14.53
2023-07-23T05:35:19.008Z,14.60
2023-07-23T05:37:45.740Z,14.62
2023-07-23T05:40:12.624Z,14.66
2023-07-23T05:42:39.369Z,14.67
2023-07-23T05:45:06.728Z,14.73
2023-07-23T05:47:33.523Z,14.84
2023-07-23T05:50:00.280Z,14.97
2023-07-23T05:52:27.266Z,15.17
2023-07-23T05:54:54.012Z,15.41
2023-07-23T05:57:20.803Z,15.59
2023-07-23T05:59:47.528Z,15.88
2023-07-23T06:02:14.291Z,16.14
2023-07-23T06:04:41.220Z,16.42
2023-07-23T06:07:08.024Z,16.68
2023-07-23T06:09:34.835Z,16.87
2023-07-23T06:12:01.580Z,17.01
2023-07-23T06:14:28.389Z,17.15
2023-07-23T06:16:55.670Z,17.26
2023-07-23T06:19:22.526Z,17.38
2023-07-23T06:21:49.314Z,17.49
2023-07-23T06:24:16.142Z,17.59
2023-07-23T06:26:42.876Z,17.71
2023-07-23T06:29:10.097Z,17.86
2023-07-23T06:31:36.835Z,17.95
2023-07-23T06:34:03.632Z,17.98
2023-07-23T06:36:30.505Z,18.01
2023-07-23T06:38:57.215Z,18.05
2023-07-23T06:41:24.084Z,18.09
2023-07-23T06:43:50.817Z,18.23
2023-07-23T06:46:21.409Z,18.32
2023-07-23T06:48:48.823Z,18.50
2023-07-23T06:51:15.643Z,18.77
2023-07-23T06:53:44.152Z,19.15
2023-07-23T06:56:10.964Z,19.49
2023-07-23T06:58:38.757Z,19.64
2023-07-23T07:01:06.724Z,19.62
2023-07-23T07:03:33.898Z,19.51
2023-07-23T07:06:00.964Z,19.40
2023-07-23T07:08:28.367Z,19.45
2023-07-23T07:11:02.325Z,19.51
2023-07-23T07:13:29.710Z,19.61
2023-07-23T07:15:56.520Z,19.90
2023-07-23T07:18:23.526Z,20.08
2023-07-23T07:20:59.180Z,20.16
2023-07-23T07:23:26.807Z,20.08
2023-07-23T07:25:55.605Z,20.10
2023-07-23T07:28:22.423Z,20.12
2023-07-23T07:30:49.166Z,20.25
2023-07-23T07:33:16.083Z,20.54
2023-07-23T07:35:44.441Z,20.96
2023-07-23T07:38:11.249Z,21.26
2023-07-23T07:40:41.329Z,21.38
2023-07-23T07:43:08.027Z,21.44
2023-07-23T07:45:34.864Z,21.39
2023-07-23T07:48:01.736Z,21.23
2023-07-23T07:50:28.765Z,21.18
2023-07-23T07:52:55.496Z,21.04
2023-07-23T07:55:22.237Z,20.77
2023-07-23T07:57:49.517Z,20.47
2023-07-23T08:00:16.499Z,20.18
2023-07-23T08:02:43.548Z,19.77
2023-07-23T08:05:11.209Z,19.50
2023-07-23T08:07:38.171Z,19.16
2023-07-23T08:10:05.518Z,18.82
2023-07-23T08:12:32.317Z,18.51
2023-07-23T08:14:59.110Z,18.29
2023-07-23T08:17:26.013Z,18.10
2023-07-23T08:19:52.954Z,18.01
2023-07-23T08:22:19.778Z,17.94
2023-07-23T08:24:46.768Z,17.92
2023-07-23T08:27:13.988Z,17.93
2023-07-23T08:29:41.198Z,18.02
2023-07-23T08:32:09.725Z,18.10
2023-07-23T08:34:36.945Z,18.13
2023-07-23T08:37:05.177Z,18.20
2023-07-23T08:39:32.284Z,18.18
2023-07-23T08:42:01.827Z,18.20
2023-07-23T08:44:28.489Z,18.13
2023-07-23T08:47:07.806Z,18.06
2023-07-23T08:49:34.562Z,18.04
2023-07-23T08:52:01.312Z,18.10
2023-07-23T08:54:28.056Z,18.20
2023-07-23T08:56:55.691Z,18.31
2023-07-23T08:59:22.407Z,18.40
2023-07-23T09:01:49.142Z,18.47
2023-07-23T09:04:16.229Z,18.59
2023-07-23T09:06:44.275Z,18.79
2023-07-23T09:09:12.467Z,19.13
2023-07-23T09:11:39.192Z,19.70
2023-07-23T09:14:10.872Z,20.58
2023-07-23T09:16:45.398Z,21.61
2023-07-23T09:19:13.363Z,22.45
2023-07-23T09:21:41.623Z,23.00
2023-07-23T09:24:10.771Z,23.24
2023-07-23T09:26:37.851Z,23.64
2023-07-23T09:29:08.665Z,23.85
2023-07-23T09:31:35.696Z,23.85
2023-07-23T09:34:02.958Z,23.83
2023-07-23T09:36:30.069Z,24.02
2023-07-23T09:39:01.020Z,24.41
2023-07-23T09:41:30.663Z,24.90
2023-07-23T09:44:08.396Z,25.32
2023-07-23T09:46:35.358Z,25.57
2023-07-23T09:49:02.228Z,25.49
2023-07-23T09:51:29.188Z,25.25
2023-07-23T09:53:56.297Z,24.95
2023-07-23T09:56:23.928Z,24.54
2023-07-23T09:58:51.731Z,24.31
2023-07-23T10:01:19.192Z,23.97
2023-07-23T10:03:46.342Z,23.84
2023-07-23T10:06:13.425Z,23.61
2023-07-23T10:08:41.629Z,23.45
2023-07-23T10:11:08.844Z,23.26
2023-07-23T10:13:36.224Z,23.50
2023-07-23T10:16:04.371Z,24.53
2023-07-23T10:18:31.170Z,26.25
2023-07-23T10:20:57.899Z,28.85
2023-07-23T10:23:24.654Z,29.70
2023-07-23T10:25:52.243Z,30.79
2023-07-23T10:28:23.463Z,31.11
2023-07-23T10:31:19.184Z,31.71
2023-07-23T10:33:46.964Z,32.39
2023-07-23T10:36:13.725Z,31.91
2023-07-23T10:38:40.583Z,31.21
2023-07-23T10:41:08.344Z,30.45
2023-07-23T10:43:39.752Z,30.72
2023-07-23T10:46:11.297Z,31.22
2023-07-23T10:48:56.520Z,31.97
2023-07-23T10:51:24.792Z,33.00
2023-07-23T10:54:04.256Z,33.96
2023-07-23T10:56:37.813Z,34.89
2023-07-23T10:59:07.333Z,35.69
2023-07-23T11:01:37.113Z,35.70
2023-07-23T11:04:11.562Z,35.83
2023-07-23T11:06:38.534Z,35.32
2023-07-23T11:09:06.364Z,33.72
2023-07-23T11:11:41.482Z,32.61
2023-07-23T11:14:21.534Z,33.40
2023-07-23T11:16:49.280Z,34.59
2023-07-23T11:19:17.782Z,35.89
2023-07-23T11:21:46.270Z,36.24
2023-07-23T11:24:13.080Z,36.16
2023-07-23T11:26:40.914Z,36.05
2023-07-23T11:29:07.950Z,36.68
2023-07-23T11:31:35.246Z,36.85
2023-07-23T11:34:02.315Z,36.07
2023-07-23T11:36:29.317Z,36.16
2023-07-23T11:38:56.624Z,35.43
2023-07-23T11:41:38.981Z,34.07
2023-07-23T11:44:06.391Z,32.38
2023-07-23T11:46:34.426Z,31.06
2023-07-23T11:49:02.153Z,29.63
2023-07-23T11:51:30.165Z,28.45
2023-07-23T11:54:14.767Z,28.28
2023-07-23T11:56:46.266Z,28.35
2023-07-23T11:59:17.754Z,28.82
2023-07-23T12:01:45.473Z,30.66
2023-07-23T12:04:12.290Z,32.84
2023-07-23T12:06:40.020Z,32.20
2023-07-23T12:09:08.437Z,30.95
2023-07-23T12:11:35.935Z,29.51
2023-07-23T12:14:08.024Z,27.89
2023-07-23T12:16:53.537Z,26.21
2023-07-23T12:19:21.247Z,24.97
2023-07-23T12:21:53.056Z,23.99
2023-07-23T12:24:20.739Z,23.18
2023-07-23T12:26:50.145Z,22.48
2023-07-23T12:29:17.369Z,21.98
2023-07-23T12:31:46.900Z,21.64
2023-07-23T12:34:14.322Z,21.40
2023-07-23T12:36:41.228Z,21.16
2023-07-23T12:39:09.280Z,21.14
2023-07-23T12:41:36.408Z,21.27
2023-07-23T12:44:03.554Z,21.93
2023-07-23T12:46:30.983Z,23.05
2023-07-23T12:48:58.303Z,24.53
2023-07-23T12:51:25.380Z,26.35
2023-07-23T12:53:52.615Z,27.90
2023-07-23T12:56:19.389Z,28.59
2023-07-23T12:58:46.172Z,28.99
2023-07-23T13:01:12.923Z,29.17
2023-07-23T13:03:39.726Z,29.30
2023-07-23T13:06:06.542Z,29.29
2023-07-23T13:08:33.313Z,29.13
2023-07-23T13:11:00.209Z,28.93
2023-07-23T13:13:27.250Z,28.79
2023-07-23T13:15:54.004Z,28.58
2023-07-23T13:18:20.963Z,28.38
2023-07-23T13:20:47.756Z,28.20
2023-07-23T13:23:14.536Z,28.12
2023-07-23T13:25:41.316Z,27.99
2023-07-23T13:28:08.087Z,27.91
2023-07-23T13:30:35.005Z,27.70
2023-07-23T13:33:01.828Z,27.50
2023-07-23T13:35:29.671Z,27.17
2023-07-23T13:37:56.467Z,26.65
2023-07-23T13:40:23.583Z,26.07
2023-07-23T13:42:50.391Z,25.58
2023-07-23T13:45:17.176Z,25.22
2023-07-23T13:47:44.102Z,24.95
2023-07-23T13:50:10.953Z,24.92
2023-07-23T13:52:37.653Z,24.99
2023-07-23T13:55:04.815Z,25.00
2023-07-23T13:57:32.004Z,24.94
2023-07-23T13:59:58.807Z,24.74
2023-07-23T14:02:26.359Z,24.48
2023-07-23T14:04:53.303Z,24.28
2023-07-23T14:07:20.109Z,23.97
2023-07-23T14:09:46.872Z,23.61
2023-07-23T14:12:13.681Z,23.18
2023-07-23T14:14:40.445Z,22.69
2023-07-23T14:17:07.355Z,22.24
2023-07-23T14:19:34.299Z,21.96
2023-07-23T14:22:01.272Z,21.83
2023-07-23T14:24:28.040Z,21.82
2023-07-23T14:26:54.850Z,21.84
2023-07-23T14:29:21.609Z,21.77
2023-07-23T14:31:48.331Z,21.67
2023-07-23T14:34:15.090Z,21.60
2023-07-23T14:36:41.808Z,21.53
2023-07-23T14:39:08.598Z,21.43
2023-07-23T14:41:35.350Z,21.36
2023-07-23T14:44:02.161Z,21.25
2023-07-23T14:46:28.969Z,21.12
2023-07-23T14:48:55.862Z,21.01
2023-07-23T14:51:22.617Z,20.83
2023-07-23T14:53:51.003Z,20.66
2023-07-23T14:56:18.205Z,20.51
2023-07-23T14:58:45.126Z,20.35
2023-07-23T15:01:11.899Z,20.24
2023-07-23T15:03:39.014Z,20.17
2023-07-23T15:06:05.980Z,20.14
2023-07-23T15:08:32.734Z,20.16
2023-07-23T15:10:59.507Z,20.11
2023-07-23T15:13:26.611Z,20.08
2023-07-23T15:15:53.674Z,20.08
2023-07-23T15:18:20.705Z,20.11
2023-07-23T15:20:47.711Z,20.15
2023-07-23T15:23:14.691Z,20.23
2023-07-23T15:25:41.794Z,20.32
2023-07-23T15:28:08.581Z,20.43
2023-07-23T15:30:35.372Z,20.39
2023-07-23T15:33:02.224Z,20.37
2023-07-23T15:35:29.734Z,20.27
2023-07-23T15:37:56.492Z,20.18
2023-07-23T15:40:23.272Z,20.05
2023-07-23T15:42:50.012Z,19.88
2023-07-23T15:45:16.780Z,19.69
2023-07-23T15:47:43.616Z,19.56
2023-07-23T15:50:10.631Z,19.47
2023-07-23T15:52:37.419Z,19.47
2023-07-23T15:55:04.288Z,19.45
2023-07-23T15:57:31.068Z,19.31
2023-07-23T15:59:57.860Z,19.26
2023-07-23T16:02:24.664Z,19.16
2023-07-23T16:04:51.435Z,19.11
2023-07-23T16:07:18.161Z,19.09
2023-07-23T16:09:44.914Z,19.11
2023-07-23T16:12:11.726Z,19.13
2023-07-23T16:14:38.405Z,19.13
2023-07-23T16:17:05.268Z,19.16
2023-07-23T16:19:32.017Z,19.17
2023-07-23T16:21:58.778Z,19.14
2023-07-23T16:24:25.569Z,19.14
2023-07-23T16:26:53.860Z,19.05
2023-07-23T16:29:20.650Z,18.98
2023-07-23T16:31:47.648Z,18.86
2023-07-23T16:34:14.718Z,18.74
2023-07-23T16:36:42.004Z,18.65
2023-07-23T16:39:08.833Z,18.56
2023-07-23T16:41:35.561Z,18.50
2023-07-23T16:44:02.360Z,18.43
2023-07-23T16:46:29.289Z,18.38
2023-07-23T16:48:56.002Z,18.33
2023-07-23T16:51:22.818Z,18.25
2023-07-23T16:53:49.598Z,18.18
2023-07-23T16:56:16.398Z,18.16
2023-07-23T16:58:43.260Z,18.11
2023-07-23T17:01:10.053Z,18.09
2023-07-23T17:03:36.844Z,18.11
2023-07-23T17:06:03.609Z,18.06
2023-07-23T17:08:30.396Z,18.07
2023-07-23T17:10:57.243Z,18.03
2023-07-23T17:13:24.691Z,17.99
2023-07-23T17:15:51.485Z,17.90
2023-07-23T17:18:18.252Z,17.89
2023-07-23T17:20:48.222Z,17.88
2023-07-23T17:23:16.406Z,17.86
2023-07-23T17:25:43.639Z,17.81
2023-07-23T17:28:10.769Z,17.73
2023-07-23T17:30:38.630Z,17.65
2023-07-23T17:33:05.774Z,17.60
2023-07-23T17:35:32.727Z,17.62
2023-07-23T17:37:59.495Z,17.57
2023-07-23T17:40:26.319Z,17.56
2023-07-23T17:42:53.165Z,17.52
2023-07-23T17:45:20.018Z,17.51
2023-07-23T17:47:46.891Z,17.45
2023-07-23T17:50:15.418Z,17.41
2023-07-23T17:52:42.457Z,17.34
2023-07-23T17:55:09.396Z,17.25
2023-07-23T17:57:36.228Z,17.18
2023-07-23T18:00:03.430Z,17.06
2023-07-23T18:02:30.336Z,17.00
2023-07-23T18:04:57.130Z,16.81
2023-07-23T18:07:23.999Z,16.77
2023-07-23T18:09:50.842Z,16.67
2023-07-23T18:12:17.663Z,16.59
2023-07-23T18:14:44.437Z,16.53
2023-07-23T18:17:11.236Z,16.44
2023-07-23T18:19:38.033Z,16.43
2023-07-23T18:22:05.132Z,16.34
2023-07-23T18:24:31.956Z,16.28
2023-07-23T18:26:58.853Z,16.23
2023-07-23T18:29:28.745Z,16.16
2023-07-23T18:31:55.640Z,16.10
2023-07-23T18:34:22.727Z,16.08
2023-07-23T18:36:49.487Z,16.01
2023-07-23T18:39:16.354Z,15.99
2023-07-23T18:41:43.102Z,15.97
2023-07-23T18:44:10.769Z,15.93
2023-07-23T18:46:37.650Z,15.88
2023-07-23T18:49:05.347Z,15.88
2023-07-23T18:51:32.106Z,15.87
2023-07-23T18:53:59.072Z,15.85
2023-07-23T18:56:25.930Z,15.80
2023-07-23T18:58:52.867Z,15.80
2023-07-23T19:01:19.697Z,15.78
2023-07-23T19:03:49.870Z,15.79
2023-07-23T19:06:16.850Z,15.77
2023-07-23T19:08:44.964Z,15.76
2023-07-23T19:11:11.703Z,15.78
2023-07-23T19:13:38.402Z,15.77
2023-07-23T19:16:06.802Z,15.75
2023-07-23T19:18:37.205Z,15.73
2023-07-23T19:21:04.344Z,15.71
2023-07-23T19:23:31.088Z,15.67
2023-07-23T19:25:57.861Z,15.67
2023-07-23T19:28:24.631Z,15.63
2023-07-23T19:30:54.401Z,15.65
2023-07-23T19:33:21.204Z,15.63
2023-07-23T19:35:48.001Z,15.67
2023-07-23T19:38:14.768Z,15.64
2023-07-23T19:40:41.463Z,15.65
2023-07-23T19:43:08.270Z,15.66
2023-07-23T19:45:34.986Z,15.69
2023-07-23T19:48:02.945Z,15.69
2023-07-23T19:50:29.763Z,15.71
2023-07-23T19:52:56.510Z,15.69
2023-07-23T19:55:23.505Z,15.70
2023-07-23T19:57:50.665Z,15.67
2023-07-23T20:00:17.466Z,15.67
2023-07-23T20:02:44.249Z,15.62
2023-07-23T20:05:11.202Z,15.62
2023-07-23T20:07:38.007Z,15.62
2023-07-23T20:10:05.419Z,15.61
2023-07-23T20:12:32.169Z,15.58
2023-07-23T20:14:58.904Z,15.54
2023-07-23T20:17:25.742Z,15.53
2023-07-23T20:19:52.480Z,15.53
2023-07-23T20:22:19.222Z,15.56
2023-07-23T20:24:48.339Z,15.49
2023-07-23T20:27:15.479Z,15.51
2023-07-23T20:29:42.481Z,15.48
2023-07-23T20:32:09.982Z,15.50
2023-07-23T20:34:37.008Z,15.47
2023-07-23T20:37:04.108Z,15.46
2023-07-23T20:39:31.107Z,15.47
2023-07-23T20:41:58.367Z,15.47
2023-07-23T20:44:25.057Z,15.44
2023-07-23T20:46:51.779Z,15.41
2023-07-23T20:49:18.521Z,15.33
2023-07-23T20:51:45.286Z,15.34
2023-07-23T20:54:12.536Z,15.34
2023-07-23T20:56:39.406Z,15.32
2023-07-23T20:59:06.115Z,15.26
2023-07-23T21:01:32.801Z,15.27
2023-07-23T21:03:59.626Z,15.27
2023-07-23T21:06:26.462Z,15.23
2023-07-23T21:08:53.228Z,15.22
2023-07-23T21:11:19.973Z,15.24
2023-07-23T21:13:46.787Z,15.29
2023-07-23T21:16:13.515Z,15.27
2023-07-23T21:18:40.284Z,15.21
2023-07-23T21:21:07.057Z,15.18
2023-07-23T21:23:33.909Z,15.15
2023-07-23T21:26:00.648Z,15.15
2023-07-23T21:28:27.387Z,15.11
2023-07-23T21:30:55.317Z,15.11
2023-07-23T21:33:22.182Z,15.06
2023-07-23T21:35:48.936Z,15.01
2023-07-23T21:38:16.242Z,14.95
2023-07-23T21:40:42.966Z,14.95
2023-07-23T21:43:09.733Z,14.96
2023-07-23T21:45:36.503Z,14.95
2023-07-23T21:48:03.337Z,14.90
2023-07-23T21:50:30.094Z,14.92
2023-07-23T21:52:56.907Z,14.92
2023-07-23T21:55:23.625Z,14.95
2023-07-23T21:57:50.364Z,14.91
2023-07-23T22:00:17.521Z,14.91
2023-07-23T22:02:44.434Z,14.92
2023-07-23T22:05:11.528Z,14.92
2023-07-23T22:07:38.615Z,14.88
2023-07-23T22:10:08.155Z,14.91
2023-07-23T22:12:35.731Z,14.85
2023-07-23T22:15:02.778Z,14.87
2023-07-23T22:17:29.612Z,14.84
2023-07-23T22:19:56.421Z,14.86
2023-07-23T22:22:24.102Z,14.87
2023-07-23T22:24:51.256Z,14.83
2023-07-23T22:27:18.065Z,14.82
2023-07-23T22:29:44.795Z,14.83
2023-07-23T22:32:11.561Z,14.86
2023-07-23T22:34:38.401Z,14.85
2023-07-23T22:37:05.535Z,14.87
2023-07-23T22:39:32.291Z,14.80
2023-07-23T22:41:59.139Z,14.81
2023-07-23T22:44:26.053Z,14.83
2023-07-23T22:46:54.444Z,14.82
2023-07-23T22:49:21.244Z,14.76
2023-07-23T22:51:47.982Z,14.77
2023-07-23T22:54:14.766Z,14.77
2023-07-23T22:56:41.606Z,14.77
2023-07-23T22:59:08.365Z,14.76
2023-07-23T23:01:35.138Z,14.75
2023-07-23T23:04:01.993Z,14.77
2023-07-23T23:06:29.002Z,14.82
2023-07-23T23:08:56.514Z,14.85
2023-07-23T23:11:23.236Z,14.85
2023-07-23T23:13:49.977Z,14.88
2023-07-23T23:16:16.800Z,14.89
2023-07-23T23:18:43.555Z,14.87
2023-07-23T23:21:10.356Z,14.89
2023-07-23T23:23:37.077Z,14.86
2023-07-23T23:26:04.092Z,14.91
2023-07-23T23:28:30.811Z,14.92
2023-07-23T23:30:57.596Z,14.93
2023-07-23T23:33:24.321Z,14.93
2023-07-23T23:35:56.078Z,14.95
2023-07-23T23:38:23.443Z,15.00
2023-07-23T23:40:50.568Z,14.99
2023-07-23T23:43:17.326Z,14.98
2023-07-23T23:45:44.118Z,14.99
2023-07-23T23:48:10.964Z,14.99
2023-07-23T23:50:38.171Z,14.94
2023-07-23T23:53:05.002Z,14.99
2023-07-23T23:55:31.777Z,14.89
2023-07-23T23:57:58.610Z,14.87
